createdAt,value
2019-01-04T00:00:45.677Z,40.12
2019-01-04T00:03:13.559Z,39.87
2019-01-04T00:05:41.825Z,40.14
2019-01-04T00:08:09.776Z,40.29
2019-01-04T00:10:37.690Z,39.61
2019-01-04T00:13:06.114Z,39.73
2019-01-04T00:15:33.931Z,39.79
2019-01-04T00:18:01.777Z,39.37
2019-01-04T00:20:30.031Z,39.54
2019-01-04T00:22:58.132Z,39.27
2019-01-04T00:25:25.959Z,39.57
2019-01-04T00:27:54.000Z,39.42
2019-01-04T00:30:22.725Z,39.49
2019-01-04T00:32:50.601Z,39.03
2019-01-04T00:35:18.447Z,39.66
2019-01-04T00:37:46.286Z,38.97
2019-01-04T00:40:14.165Z,38.83
2019-01-04T00:42:42.540Z,40.50
2019-01-04T00:45:10.716Z,41.02
2019-01-04T00:47:38.749Z,41.06
2019-01-04T00:50:07.808Z,41.25
2019-01-04T00:52:35.698Z,40.98
2019-01-04T00:55:26.210Z,41.45
2019-01-04T00:58:03.913Z,40.89
2019-01-04T01:00:53.556Z,41.25
2019-01-04T01:03:46.815Z,41.26
2019-01-04T01:06:21.190Z,41.13
2019-01-04T01:09:08.833Z,40.97
2019-01-04T01:11:53.719Z,40.89
2019-01-04T01:14:38.375Z,40.93
2019-01-04T01:17:24.253Z,41.06
2019-01-04T01:20:10.543Z,40.32
2019-01-04T01:22:56.797Z,40.53
2019-01-04T01:26:02.961Z,39.82
2019-01-04T01:28:59.495Z,40.53
2019-01-04T01:31:45.700Z,39.40
2019-01-04T01:34:42.194Z,40.30
2019-01-04T01:37:32.918Z,40.21
2019-01-04T01:40:18.891Z,40.21
2019-01-04T01:43:05.461Z,39.38
2019-01-04T01:45:53.586Z,39.81
2019-01-04T01:48:25.209Z,39.84
2019-01-04T01:51:21.313Z,40.23
2019-01-04T01:53:49.253Z,39.66
2019-01-04T01:56:17.267Z,39.52
2019-01-04T01:58:45.169Z,40.18
2019-01-04T02:01:13.153Z,39.37
2019-01-04T02:03:41.088Z,39.23
2019-01-04T02:06:09.072Z,39.83
2019-01-04T02:08:36.957Z,39.22
2019-01-04T02:11:04.913Z,39.11
2019-01-04T02:13:32.961Z,39.11
2019-01-04T02:16:00.965Z,38.91
2019-01-04T02:18:29.705Z,40.09
2019-01-04T02:20:57.524Z,41.23
2019-01-04T02:23:25.464Z,41.00
2019-01-04T02:25:53.334Z,41.35
2019-01-04T02:28:21.514Z,41.29
2019-01-04T02:30:49.419Z,41.14
2019-01-04T02:33:17.298Z,41.20
2019-01-04T02:35:45.331Z,41.24
2019-01-04T02:38:13.196Z,41.22
2019-01-04T02:40:41.189Z,41.05
2019-01-04T02:43:09.026Z,40.89
2019-01-04T02:45:38.389Z,41.29
2019-01-04T02:48:06.218Z,41.20
2019-01-04T02:50:34.217Z,41.19
2019-01-04T02:53:02.152Z,40.45
2019-01-04T02:55:30.071Z,40.15
2019-01-04T02:57:58.571Z,40.13
2019-01-04T03:00:26.508Z,39.66
2019-01-04T03:02:54.415Z,39.26
2019-01-04T03:05:22.400Z,39.56
2019-01-04T03:07:50.237Z,39.33
2019-01-04T03:10:19.004Z,39.43
2019-01-04T03:12:46.831Z,39.32
2019-01-04T03:15:14.729Z,39.71
2019-01-04T03:17:42.700Z,39.29
2019-01-04T03:20:10.653Z,39.34
2019-01-04T03:22:38.534Z,39.19
2019-01-04T03:25:07.285Z,39.38
2019-01-04T03:27:35.664Z,39.13
2019-01-04T03:30:03.944Z,39.17
2019-01-04T03:32:31.978Z,39.38
2019-01-04T03:34:59.908Z,39.83
2019-01-04T03:37:28.185Z,39.30
2019-01-04T03:39:57.960Z,39.21
2019-01-04T03:42:27.378Z,39.31
2019-01-04T03:44:56.143Z,39.59
2019-01-04T03:47:24.205Z,39.49
2019-01-04T03:49:52.136Z,39.06
2019-01-04T03:52:20.074Z,39.45
2019-01-04T03:54:49.260Z,39.11
2019-01-04T03:57:17.306Z,38.95
2019-01-04T03:59:45.141Z,39.36
2019-01-04T04:02:13.288Z,40.38
2019-01-04T04:04:41.213Z,40.96
2019-01-04T04:07:09.230Z,40.56
2019-01-04T04:09:37.869Z,41.16
2019-01-04T04:12:05.818Z,41.02
2019-01-04T04:14:35.611Z,40.84
2019-01-04T04:17:03.600Z,41.11
2019-01-04T04:19:31.539Z,41.25
2019-01-04T04:21:59.501Z,41.22
2019-01-04T04:24:27.351Z,41.22
2019-01-04T04:26:55.228Z,41.05
2019-01-04T04:29:23.585Z,41.09
2019-01-04T04:31:51.536Z,41.09
2019-01-04T04:34:20.046Z,40.53
2019-01-04T04:36:48.746Z,40.72
2019-01-04T04:39:16.575Z,39.49
2019-01-04T04:41:44.415Z,39.60
2019-01-04T04:44:12.341Z,39.56
2019-01-04T04:46:40.349Z,39.31
2019-01-04T04:49:08.195Z,39.27
2019-01-04T04:51:36.934Z,39.18
2019-01-04T04:54:04.816Z,39.18
2019-01-04T04:56:32.714Z,39.51
2019-01-04T04:59:00.643Z,39.32
2019-01-04T05:01:29.119Z,39.55
2019-01-04T05:03:58.119Z,39.31
2019-01-04T05:06:27.260Z,39.57
2019-01-04T05:08:55.738Z,39.52
2019-01-04T05:11:23.767Z,39.78
2019-01-04T05:13:51.651Z,39.80
2019-01-04T05:16:20.469Z,39.69
2019-01-04T05:18:48.320Z,39.27
2019-01-04T05:21:16.159Z,39.43
2019-01-04T05:23:44.117Z,39.45
2019-01-04T05:26:12.049Z,39.60
2019-01-04T05:28:42.348Z,39.84
2019-01-04T05:31:11.365Z,39.49
2019-01-04T05:33:39.249Z,39.29
2019-01-04T05:36:07.193Z,39.20
2019-01-04T05:38:35.120Z,39.24
2019-01-04T05:41:04.370Z,40.30
2019-01-04T05:43:32.362Z,40.08
2019-01-04T05:46:00.268Z,40.81
2019-01-04T05:48:28.291Z,41.40
2019-01-04T05:50:56.273Z,41.25
2019-01-04T05:53:26.631Z,41.48
2019-01-04T05:55:55.124Z,41.78
2019-01-04T05:58:23.524Z,41.40
2019-01-04T06:00:51.529Z,41.01
2019-01-04T06:03:19.750Z,41.03
2019-01-04T06:05:47.977Z,40.57
2019-01-04T06:08:16.192Z,40.23
2019-01-04T06:10:46.694Z,40.04
2019-01-04T06:13:14.640Z,39.65
2019-01-04T06:15:42.990Z,39.81
2019-01-04T06:18:10.859Z,40.67
2019-01-04T06:20:39.276Z,39.97
2019-01-04T06:23:07.229Z,40.18
2019-01-04T06:25:35.026Z,43.10
2019-01-04T06:28:03.990Z,43.66
2019-01-04T06:30:31.891Z,43.97
2019-01-04T06:32:59.952Z,43.64
2019-01-04T06:35:27.789Z,43.50
2019-01-04T06:37:56.013Z,42.73
2019-01-04T06:40:23.917Z,42.73
2019-01-04T06:42:52.652Z,42.92
2019-01-04T06:45:20.918Z,42.63
2019-01-04T06:47:48.817Z,42.72
2019-01-04T06:50:16.638Z,42.31
2019-01-04T06:52:44.591Z,43.64
2019-01-04T06:55:39.356Z,42.54
2019-01-04T06:58:07.263Z,42.73
2019-01-04T07:00:35.175Z,42.15
2019-01-04T07:03:03.192Z,43.37
2019-01-04T07:05:31.784Z,42.82
2019-01-04T07:07:59.902Z,43.10
2019-01-04T07:10:29.158Z,43.01
2019-01-04T07:12:57.129Z,42.88
2019-01-04T07:15:25.054Z,41.78
2019-01-04T07:17:54.001Z,42.44
2019-01-04T07:20:21.917Z,41.68
2019-01-04T07:22:49.815Z,42.40
2019-01-04T07:25:17.758Z,41.82
2019-01-04T07:27:45.593Z,42.02
2019-01-04T07:30:13.928Z,41.61
2019-01-04T07:32:42.026Z,41.90
2019-01-04T07:35:09.873Z,41.55
2019-01-04T07:37:37.840Z,41.67
2019-01-04T07:40:06.050Z,41.64
2019-01-04T07:42:34.407Z,41.68
2019-01-04T07:45:02.306Z,41.57
2019-01-04T07:47:30.239Z,41.28
2019-01-04T07:49:58.279Z,41.46
2019-01-04T07:52:26.715Z,41.25
2019-01-04T07:54:54.643Z,41.04
2019-01-04T07:57:22.583Z,40.98
2019-01-04T07:59:50.538Z,41.28
2019-01-04T08:02:31.099Z,41.24
2019-01-04T08:04:59.277Z,40.67
2019-01-04T08:07:27.355Z,40.74
2019-01-04T08:09:55.344Z,41.38
2019-01-04T08:12:23.475Z,41.29
2019-01-04T08:14:51.535Z,41.07
2019-01-04T08:17:19.714Z,40.92
2019-01-04T08:19:48.879Z,41.79
2019-01-04T08:22:16.811Z,42.10
2019-01-04T08:24:44.994Z,42.37
2019-01-04T08:27:13.510Z,42.33
2019-01-04T08:29:43.190Z,42.54
2019-01-04T08:32:12.208Z,42.61
2019-01-04T08:34:40.064Z,42.83
2019-01-04T08:37:09.039Z,42.98
2019-01-04T08:39:37.263Z,46.95
2019-01-04T08:42:05.158Z,45.76
2019-01-04T08:44:33.046Z,43.85
2019-01-04T08:47:00.924Z,43.52
2019-01-04T08:49:28.873Z,43.50
2019-01-04T08:51:57.087Z,43.92
2019-01-04T08:54:25.360Z,43.63
2019-01-04T08:56:53.317Z,43.75
2019-01-04T08:59:21.249Z,43.98
2019-01-04T09:01:49.077Z,43.99
2019-01-04T09:04:16.895Z,42.86
2019-01-04T09:06:45.663Z,42.98
2019-01-04T09:09:14.110Z,42.54
2019-01-04T09:11:42.120Z,42.22
2019-01-04T09:14:10.903Z,41.94
2019-01-04T09:16:38.783Z,42.18
2019-01-04T09:19:07.570Z,39.98
2019-01-04T09:21:35.640Z,45.81
2019-01-04T09:24:03.575Z,46.11
2019-01-04T09:26:31.453Z,44.53
2019-01-04T09:28:59.389Z,41.48
2019-01-04T09:31:27.534Z,41.20
2019-01-04T09:33:55.458Z,40.98
2019-01-04T09:36:23.588Z,40.98
2019-01-04T09:38:52.002Z,41.25
2019-01-04T09:41:41.928Z,41.04
2019-01-04T09:44:10.143Z,40.98
2019-01-04T09:46:38.074Z,41.14
2019-01-04T09:49:06.573Z,41.14
2019-01-04T09:51:34.645Z,40.83
2019-01-04T09:54:02.455Z,40.81
2019-01-04T09:56:30.387Z,40.91
2019-01-04T09:58:58.219Z,40.53
2019-01-04T10:01:26.154Z,41.11
2019-01-04T10:03:54.071Z,40.53
2019-01-04T10:06:21.980Z,40.49
2019-01-04T10:08:49.932Z,40.67
2019-01-04T10:11:18.194Z,40.48
2019-01-04T10:13:46.293Z,40.83
2019-01-04T10:16:14.172Z,40.33
2019-01-04T10:18:42.112Z,40.21
2019-01-04T10:21:13.041Z,40.78
2019-01-04T10:23:40.944Z,40.68
2019-01-04T10:26:09.693Z,40.86
2019-01-04T10:28:37.598Z,40.99
2019-01-04T10:31:05.542Z,41.08
2019-01-04T10:33:33.470Z,42.00
2019-01-04T10:36:02.247Z,41.41
2019-01-04T10:38:31.107Z,41.70
2019-01-04T10:40:59.013Z,41.57
2019-01-04T10:43:26.880Z,42.22
2019-01-04T10:45:55.045Z,41.96
2019-01-04T10:48:22.967Z,41.89
2019-01-04T10:50:50.957Z,41.60
2019-01-04T10:53:18.849Z,41.62
2019-01-04T10:55:46.886Z,41.50
2019-01-04T10:58:14.685Z,41.79
2019-01-04T11:00:42.590Z,41.10
2019-01-04T11:03:10.788Z,41.03
2019-01-04T11:05:39.052Z,41.02
2019-01-04T11:08:07.034Z,41.01
2019-01-04T11:10:35.489Z,40.91
2019-01-04T11:13:03.566Z,40.81
2019-01-04T11:15:31.617Z,40.79
2019-01-04T11:17:59.896Z,40.56
2019-01-04T11:20:35.753Z,40.43
2019-01-04T11:23:08.028Z,40.01
2019-01-04T11:25:59.691Z,40.57
2019-01-04T11:28:46.878Z,40.49
2019-01-04T11:31:23.907Z,40.37
2019-01-04T11:34:13.994Z,40.53
2019-01-04T11:37:10.640Z,40.29
2019-01-04T11:39:52.477Z,40.38
2019-01-04T11:42:44.465Z,40.35
2019-01-04T11:45:31.607Z,40.32
2019-01-04T11:48:14.003Z,40.55
2019-01-04T11:50:57.448Z,40.08
2019-01-04T11:53:25.373Z,40.33
2019-01-04T11:55:53.299Z,40.32
2019-01-04T11:58:21.297Z,40.42
2019-01-04T12:00:49.168Z,40.46
2019-01-04T12:03:17.173Z,40.45
2019-01-04T12:05:44.990Z,40.50
2019-01-04T12:08:12.892Z,40.42
2019-01-04T12:10:40.798Z,40.29
2019-01-04T12:13:08.724Z,40.33
2019-01-04T12:15:36.701Z,40.47
2019-01-04T12:18:04.604Z,40.53
2019-01-04T12:20:32.862Z,40.54
2019-01-04T12:23:00.709Z,40.44
2019-01-04T12:25:28.900Z,40.46
2019-01-04T12:27:56.875Z,40.46
2019-01-04T12:30:24.701Z,40.41
2019-01-04T12:32:52.530Z,40.16
2019-01-04T12:35:20.377Z,40.50
2019-01-04T12:37:48.201Z,40.47
2019-01-04T12:40:16.268Z,40.21
2019-01-04T12:42:44.149Z,40.32
2019-01-04T12:45:12.018Z,39.82
2019-01-04T12:47:39.833Z,40.23
2019-01-04T12:50:07.806Z,40.27
2019-01-04T12:52:35.725Z,40.07
2019-01-04T12:55:04.698Z,40.17
2019-01-04T12:57:32.600Z,40.10
2019-01-04T13:00:00.508Z,40.03
2019-01-04T13:02:28.384Z,40.23
2019-01-04T13:04:56.771Z,40.08
2019-01-04T13:07:24.627Z,40.20
2019-01-04T13:09:52.542Z,40.10
2019-01-04T13:12:20.483Z,39.91
2019-01-04T13:14:48.293Z,40.05
2019-01-04T13:17:16.088Z,39.99
2019-01-04T13:19:44.613Z,39.89
2019-01-04T13:22:12.519Z,40.02
2019-01-04T13:24:40.361Z,40.05
2019-01-04T13:27:08.207Z,39.86
2019-01-04T13:29:36.114Z,40.07
2019-01-04T13:32:04.278Z,40.02
2019-01-04T13:34:32.543Z,39.97
2019-01-04T13:37:00.666Z,39.73
2019-01-04T13:39:28.563Z,39.99
2019-01-04T13:41:56.465Z,40.03
2019-01-04T13:44:24.419Z,40.08
2019-01-04T13:46:52.619Z,40.11
2019-01-04T13:49:20.509Z,40.11
2019-01-04T13:51:48.374Z,40.09
2019-01-04T13:54:16.346Z,40.10
2019-01-04T13:56:44.915Z,40.08
2019-01-04T13:59:14.279Z,40.05
2019-01-04T14:01:42.309Z,40.07
2019-01-04T14:04:10.189Z,40.06
2019-01-04T14:06:38.673Z,39.98
2019-01-04T14:09:07.134Z,40.00
2019-01-04T14:11:35.096Z,39.94
2019-01-04T14:14:02.902Z,39.88
2019-01-04T14:16:30.727Z,39.81
2019-01-04T14:18:58.967Z,39.78
2019-01-04T14:21:26.857Z,39.86
2019-01-04T14:23:54.637Z,39.90
2019-01-04T14:26:22.662Z,39.78
2019-01-04T14:28:51.138Z,39.86
2019-01-04T14:31:19.985Z,39.87
2019-01-04T14:33:47.918Z,39.79
2019-01-04T14:36:15.800Z,39.84
2019-01-04T14:38:44.720Z,39.93
2019-01-04T14:41:12.863Z,39.70
2019-01-04T14:43:41.846Z,39.82
2019-01-04T14:46:09.749Z,39.79
2019-01-04T14:48:37.615Z,39.84
2019-01-04T14:51:05.568Z,39.87
2019-01-04T14:53:33.569Z,39.80
2019-01-04T14:56:01.398Z,39.90
2019-01-04T14:58:30.392Z,39.88
2019-01-04T15:00:58.311Z,39.89
2019-01-04T15:03:26.846Z,39.70
2019-01-04T15:05:54.794Z,39.95
2019-01-04T15:08:22.597Z,38.36
2019-01-04T15:10:50.424Z,41.15
2019-01-04T15:13:18.238Z,40.14
2019-01-04T15:15:46.124Z,40.20
2019-01-04T15:18:14.095Z,40.06
2019-01-04T15:20:42.011Z,40.04
2019-01-04T15:23:10.060Z,40.19
2019-01-04T15:25:37.886Z,40.22
2019-01-04T15:28:05.819Z,40.11
2019-01-04T15:30:33.831Z,40.16
2019-01-04T15:33:01.805Z,40.03
2019-01-04T15:35:29.680Z,39.78
2019-01-04T15:37:57.500Z,39.60
2019-01-04T15:40:25.497Z,39.67
2019-01-04T15:42:53.503Z,39.79
2019-01-04T15:45:21.425Z,39.74
2019-01-04T15:47:49.325Z,39.75
2019-01-04T15:50:17.305Z,40.10
2019-01-04T15:52:45.680Z,39.99
2019-01-04T15:55:13.686Z,40.24
2019-01-04T15:57:41.976Z,40.45
2019-01-04T16:00:10.803Z,40.63
2019-01-04T16:02:38.755Z,40.80
2019-01-04T16:05:07.459Z,40.72
2019-01-04T16:07:35.476Z,40.64
2019-01-04T16:10:03.598Z,40.20
2019-01-04T16:12:31.492Z,40.64
2019-01-04T16:14:59.717Z,41.04
2019-01-04T16:17:27.960Z,41.16
2019-01-04T16:19:56.277Z,40.43
2019-01-04T16:22:24.428Z,43.05
2019-01-04T16:24:52.246Z,43.02
2019-01-04T16:27:20.414Z,41.77
2019-01-04T16:29:48.279Z,41.27
2019-01-04T16:32:16.574Z,40.81
2019-01-04T16:34:44.533Z,40.67
2019-01-04T16:37:12.363Z,39.91
2019-01-04T16:39:41.274Z,40.33
2019-01-04T16:42:09.341Z,40.34
2019-01-04T16:44:37.236Z,40.34
2019-01-04T16:47:05.497Z,40.86
2019-01-04T16:49:37.537Z,40.30
2019-01-04T16:52:08.847Z,40.02
2019-01-04T16:54:36.751Z,39.57
2019-01-04T16:57:06.200Z,39.52
2019-01-04T16:59:34.113Z,40.22
2019-01-04T17:02:02.340Z,39.55
2019-01-04T17:04:30.511Z,39.71
2019-01-04T17:06:58.971Z,39.66
2019-01-04T17:09:26.897Z,42.43
2019-01-04T17:11:54.869Z,39.87
2019-01-04T17:14:23.384Z,40.08
2019-01-04T17:16:51.387Z,40.30
2019-01-04T17:19:19.286Z,40.24
2019-01-04T17:21:47.277Z,40.04
2019-01-04T17:24:16.271Z,40.11
2019-01-04T17:26:45.941Z,40.36
2019-01-04T17:29:13.852Z,40.38
2019-01-04T17:31:42.087Z,40.40
2019-01-04T17:34:11.377Z,40.51
2019-01-04T17:36:39.344Z,40.86
2019-01-04T17:39:08.357Z,39.99
2019-01-04T17:41:37.113Z,41.86
2019-01-04T17:44:05.008Z,41.33
2019-01-04T17:46:34.140Z,40.93
2019-01-04T17:49:02.206Z,40.86
2019-01-04T17:51:30.108Z,40.76
2019-01-04T17:53:59.432Z,40.68
2019-01-04T17:56:28.169Z,40.61
2019-01-04T17:58:56.004Z,40.54
2019-01-04T18:01:23.919Z,40.26
2019-01-04T18:03:52.161Z,40.42
2019-01-04T18:06:20.075Z,40.39
2019-01-04T18:08:47.986Z,40.39
2019-01-04T18:11:15.839Z,39.96
2019-01-04T18:13:43.831Z,40.59
2019-01-04T18:16:11.817Z,40.37
2019-01-04T18:18:39.676Z,40.05
2019-01-04T18:21:07.477Z,40.28
2019-01-04T18:23:35.311Z,40.37
2019-01-04T18:26:03.297Z,41.01
2019-01-04T18:28:31.352Z,40.27
2019-01-04T18:30:59.969Z,40.19
2019-01-04T18:33:29.229Z,40.13
2019-01-04T18:35:57.302Z,40.37
2019-01-04T18:38:26.423Z,40.45
2019-01-04T18:40:54.281Z,40.42
2019-01-04T18:43:23.906Z,40.43
2019-01-04T18:45:52.014Z,40.36
2019-01-04T18:48:20.299Z,40.52
2019-01-04T18:50:48.384Z,40.31
2019-01-04T18:53:16.483Z,40.47
2019-01-04T18:55:44.708Z,40.54
2019-01-04T18:58:12.722Z,40.37
2019-01-04T19:00:42.598Z,40.25
2019-01-04T19:03:10.492Z,40.28
2019-01-04T19:05:38.557Z,39.61
2019-01-04T19:08:06.427Z,40.43
2019-01-04T19:10:34.485Z,40.37
2019-01-04T19:13:03.271Z,40.37
2019-01-04T19:15:31.192Z,40.31
2019-01-04T19:17:59.284Z,40.35
2019-01-04T19:20:27.193Z,41.29
2019-01-04T19:22:55.588Z,39.34
2019-01-04T19:25:23.631Z,39.41
2019-01-04T19:27:51.694Z,39.40
2019-01-04T19:30:19.680Z,40.24
2019-01-04T19:32:47.689Z,40.68
2019-01-04T19:35:15.641Z,39.58
2019-01-04T19:37:43.636Z,41.67
2019-01-04T19:40:12.630Z,40.31
2019-01-04T19:42:40.509Z,41.09
2019-01-04T19:45:08.385Z,40.70
2019-01-04T19:47:36.367Z,40.36
2019-01-04T19:50:15.260Z,40.29
2019-01-04T19:52:43.176Z,40.29
2019-01-04T19:55:11.061Z,40.26
2019-01-04T19:57:39.103Z,40.22
2019-01-04T20:00:07.651Z,40.18
2019-01-04T20:02:36.652Z,39.75
2019-01-04T20:05:04.707Z,40.10
2019-01-04T20:08:20.090Z,39.48
2019-01-04T20:11:30.594Z,40.05
2019-01-04T20:14:34.232Z,40.29
2019-01-04T20:17:20.026Z,40.30
2019-01-04T20:20:11.226Z,40.47
2019-01-04T20:22:58.118Z,40.52
2019-01-04T20:25:45.188Z,40.51
2019-01-04T20:28:35.402Z,40.73
2019-01-04T20:31:22.121Z,40.67
2019-01-04T20:34:08.736Z,40.76
2019-01-04T20:37:13.286Z,40.81
2019-01-04T20:40:16.191Z,40.67
2019-01-04T20:43:18.535Z,40.76
2019-01-04T20:46:14.532Z,40.74
2019-01-04T20:49:01.133Z,40.79
2019-01-04T20:51:53.933Z,40.77
2019-01-04T20:54:56.702Z,40.79
2019-01-04T20:57:42.866Z,40.72
2019-01-04T21:00:42.124Z,40.39
2019-01-04T21:03:27.813Z,40.62
2019-01-04T21:06:13.978Z,40.74
2019-01-04T21:08:58.996Z,40.90
2019-01-04T21:11:52.238Z,41.14
2019-01-04T21:14:48.387Z,40.80
2019-01-04T21:17:41.533Z,40.98
2019-01-04T21:20:28.610Z,41.04
2019-01-04T21:23:18.563Z,41.03
2019-01-04T21:26:07.158Z,41.17
2019-01-04T21:29:03.701Z,41.48
2019-01-04T21:31:56.539Z,42.38
2019-01-04T21:34:49.945Z,42.53
2019-01-04T21:37:55.808Z,41.87
2019-01-04T21:40:36.667Z,41.99
2019-01-04T21:43:22.901Z,42.09
2019-01-04T21:46:30.873Z,42.24
2019-01-04T21:49:15.881Z,42.06
2019-01-04T21:52:03.131Z,42.16
2019-01-04T21:54:49.122Z,42.06
2019-01-04T21:57:38.912Z,43.81
2019-01-04T22:00:25.555Z,42.35
2019-01-04T22:03:08.733Z,42.28
2019-01-04T22:05:50.051Z,42.85
2019-01-04T22:08:34.177Z,42.44
2019-01-04T22:11:20.413Z,42.17
2019-01-04T22:14:07.467Z,42.69
2019-01-04T22:17:06.593Z,42.61
2019-01-04T22:19:56.432Z,42.63
2019-01-04T22:22:46.511Z,43.02
2019-01-04T22:25:36.654Z,42.79
2019-01-04T22:28:23.952Z,42.92
2019-01-04T22:31:10.039Z,42.76
2019-01-04T22:33:55.543Z,43.12
2019-01-04T22:36:56.533Z,42.83
2019-01-04T22:39:59.224Z,42.87
2019-01-04T22:42:46.621Z,42.94
2019-01-04T22:45:33.690Z,43.01
2019-01-04T22:48:19.630Z,42.89
2019-01-04T22:51:05.617Z,42.85
2019-01-04T22:53:51.498Z,43.04
2019-01-04T22:56:37.156Z,43.05
2019-01-04T22:59:23.665Z,42.92
2019-01-04T23:02:10.804Z,42.84
2019-01-04T23:04:56.391Z,43.11
2019-01-04T23:07:33.044Z,42.81
2019-01-04T23:10:20.410Z,43.01
2019-01-04T23:13:17.955Z,42.86
2019-01-04T23:16:04.128Z,43.03
2019-01-04T23:18:45.934Z,42.67
2019-01-04T23:21:50.009Z,42.25
2019-01-04T23:24:45.959Z,42.38
2019-01-04T23:27:32.887Z,42.54
2019-01-04T23:30:18.669Z,42.55
2019-01-04T23:33:11.706Z,42.87
2019-01-04T23:35:59.173Z,42.42
2019-01-04T23:38:46.312Z,42.55
2019-01-04T23:41:36.201Z,42.85
2019-01-04T23:44:22.402Z,43.13
2019-01-04T23:47:08.423Z,43.10
2019-01-04T23:50:04.260Z,43.22
2019-01-04T23:52:49.910Z,42.34
2019-01-04T23:55:28.487Z,42.60
2019-01-04T23:58:15.462Z,43.61
